Time;durP1;ratioP1;P1;durP2;ratioP2;P2;SDS_P1;SDS_P2;PMS_P1;PMS_P2;Temp;Humidity;BMP_temperature;BMP_pressure;BME280_temperature;BME280_humidity;BME280_pressure;Samples;Min_cycle;Max_cycle;Signal;HPM_P1;HPM_P2
2021/08/11 00:01:40;;;;;;;7.20;6.37;;;15.70;99.90;;;;;;5008940;28;20252;-63
2021/08/11 00:04:09;;;;;;;7.20;6.50;;;15.70;99.90;;;;;;5009537;28;20678;-64
2021/08/11 00:06:37;;;;;;;7.20;6.33;;;15.60;99.90;;;;;;5006083;28;20648;-64
2021/08/11 00:09:06;;;;;;;8.17;6.90;;;15.70;99.90;;;;;;5009195;28;20229;-64
2021/08/11 00:11:35;;;;;;;8.43;6.03;;;15.60;99.90;;;;;;5009480;28;20593;-64
2021/08/11 00:14:03;;;;;;;7.30;6.23;;;15.70;99.90;;;;;;5008872;28;20454;-64
2021/08/11 00:16:31;;;;;;;8.57;5.83;;;15.70;99.90;;;;;;5008224;28;20256;-65
2021/08/11 00:19:00;;;;;;;10.43;6.80;;;15.60;99.90;;;;;;5009237;28;20564;-65
2021/08/11 00:21:28;;;;;;;9.83;6.47;;;15.60;99.90;;;;;;5008268;28;20248;-64
2021/08/11 00:23:56;;;;;;;9.10;6.50;;;15.60;99.90;;;;;;5008973;28;20295;-64
2021/08/11 00:26:25;;;;;;;8.13;6.60;;;15.70;99.90;;;;;;5008447;28;20244;-65
2021/08/11 00:28:53;;;;;;;10.53;6.60;;;15.60;99.90;;;;;;5005077;28;20264;-64
2021/08/11 00:31:21;;;;;;;9.37;6.87;;;15.60;99.90;;;;;;5008906;28;20237;-64
2021/08/11 00:33:50;;;;;;;10.23;6.77;;;15.60;99.90;;;;;;5007615;28;20240;-64
2021/08/11 00:36:18;;;;;;;8.10;7.30;;;15.50;99.90;;;;;;5007887;28;20731;-65
2021/08/11 00:38:47;;;;;;;8.43;7.47;;;15.50;99.90;;;;;;5006860;28;20233;-63
2021/08/11 00:41:16;;;;;;;9.40;6.33;;;15.40;99.90;;;;;;5027091;28;20259;-64
2021/08/11 00:43:45;;;;;;;7.97;7.13;;;15.50;99.90;;;;;;5026796;28;20720;-64
2021/08/11 00:46:16;;;;;;;11.50;7.63;;;15.50;99.90;;;;;;5023584;28;20311;-65
2021/08/11 00:48:46;;;;;;;8.03;7.30;;;15.50;99.90;;;;;;5030099;28;20707;-64
2021/08/11 00:51:17;;;;;;;10.90;7.77;;;15.40;99.90;;;;;;5007271;28;20236;-64
2021/08/11 00:53:48;;;;;;;9.93;7.53;;;15.40;99.90;;;;;;5026399;28;20240;-64
2021/08/11 00:56:22;;;;;;;9.63;7.70;;;15.40;99.90;;;;;;5005628;28;20244;-64
2021/08/11 00:58:53;;;;;;;10.13;7.90;;;15.40;99.90;;;;;;5006793;28;20622;-65
2021/08/11 01:01:26;;;;;;;9.70;8.17;;;15.40;99.90;;;;;;5006229;28;20259;-64
2021/08/11 01:03:59;;;;;;;9.97;8.40;;;15.40;99.90;;;;;;5008297;28;20236;-64
2021/08/11 01:06:30;;;;;;;10.33;8.90;;;15.30;99.90;;;;;;5006776;28;20256;-64
2021/08/11 01:08:59;;;;;;;7.80;7.00;;;15.50;99.90;;;;;;5006476;28;20229;-64
2021/08/11 01:11:28;;;;;;;9.63;8.30;;;15.40;99.90;;;;;;4997358;28;20324;-65
2021/08/11 01:13:59;;;;;;;11.67;8.47;;;15.30;99.90;;;;;;5006892;28;20592;-65
2021/08/11 01:16:29;;;;;;;8.90;8.07;;;15.30;99.90;;;;;;5005753;28;20229;-64
2021/08/11 01:18:59;;;;;;;8.90;8.00;;;15.30;99.90;;;;;;5006761;28;20564;-64
2021/08/11 01:21:32;;;;;;;12.07;8.30;;;15.30;99.90;;;;;;5006107;28;20253;-64
2021/08/11 01:24:07;;;;;;;11.27;8.20;;;15.40;99.90;;;;;;5006416;28;20263;-64
2021/08/11 01:26:52;;;;;;;10.63;8.50;;;15.30;99.90;;;;;;5012476;28;20245;-64
2021/08/11 01:29:30;;;;;;;9.70;8.70;;;15.30;99.90;;;;;;5006504;28;20332;-64
2021/08/11 01:32:03;;;;;;;9.37;8.13;;;15.20;99.90;;;;;;5006028;28;20232;-64
2021/08/11 01:34:42;;;;;;;8.83;7.83;;;15.20;99.90;;;;;;5006126;28;20641;-65
2021/08/11 01:37:16;;;;;;;8.87;7.97;;;15.10;99.90;;;;;;5005620;28;20233;-64
2021/08/11 01:39:51;;;;;;;11.40;8.90;;;15.00;99.90;;;;;;4997943;28;20324;-64
2021/08/11 01:42:28;;;;;;;10.97;8.63;;;15.00;99.90;;;;;;5005784;28;20601;-64
2021/08/11 01:45:05;;;;;;;9.57;8.53;;;14.90;99.90;;;;;;4991158;28;20279;-63
2021/08/11 01:47:41;;;;;;;10.27;8.33;;;14.90;99.90;;;;;;5005210;28;20241;-64
2021/08/11 01:50:15;;;;;;;9.47;8.10;;;15.00;99.90;;;;;;5006565;28;20237;-64
2021/08/11 01:52:46;;;;;;;9.73;8.43;;;15.20;99.90;;;;;;5025140;28;20643;-63
2021/08/11 01:55:17;;;;;;;10.90;8.53;;;15.10;99.90;;;;;;5025996;28;20582;-63
2021/08/11 01:57:52;;;;;;;11.93;8.47;;;15.20;99.90;;;;;;5028422;28;20278;-64
2021/08/11 02:00:27;;;;;;;10.77;8.50;;;15.10;99.90;;;;;;4998391;28;20729;-64
2021/08/11 02:03:00;;;;;;;11.17;8.67;;;15.00;99.90;;;;;;5008837;28;20236;-64
2021/08/11 02:05:31;;;;;;;10.30;9.30;;;15.10;99.90;;;;;;5005919;28;20605;-63
2021/08/11 02:08:10;;;;;;;10.00;8.93;;;15.00;99.90;;;;;;5020337;28;20236;-63
2021/08/11 02:10:42;;;;;;;10.70;8.60;;;15.00;99.90;;;;;;5025129;28;20228;-65
2021/08/11 02:13:11;;;;;;;10.27;9.17;;;15.00;99.90;;;;;;5026312;28;20232;-63
2021/08/11 02:15:39;;;;;;;9.67;8.20;;;15.00;99.90;;;;;;5025301;28;20232;-63
2021/08/11 02:18:10;;;;;;;10.83;8.97;;;14.90;99.90;;;;;;5024784;28;21737;-64
2021/08/11 02:20:40;;;;;;;11.93;9.30;;;14.90;99.90;;;;;;5024796;28;20580;-66
2021/08/11 02:23:09;;;;;;;12.10;9.27;;;14.80;99.90;;;;;;5023681;28;20232;-66
2021/08/11 02:25:45;;;;;;;11.07;9.60;;;14.90;99.90;;;;;;5025078;28;20240;-67
2021/08/11 02:28:20;;;;;;;10.60;9.00;;;14.80;99.90;;;;;;5024231;28;20640;-66
2021/08/11 02:30:58;;;;;;;12.10;9.53;;;14.90;99.90;;;;;;5024794;28;20610;-64
2021/08/11 02:33:33;;;;;;;12.87;9.37;;;14.90;99.90;;;;;;5022552;28;20236;-64
2021/08/11 02:36:09;;;;;;;10.33;9.13;;;14.80;99.90;;;;;;5025226;28;20239;-64
2021/08/11 02:38:40;;;;;;;10.57;9.47;;;14.80;99.90;;;;;;5024216;28;20281;-64
2021/08/11 02:41:12;;;;;;;13.50;10.10;;;14.90;99.90;;;;;;5025049;28;20255;-64
2021/08/11 02:43:48;;;;;;;11.00;9.43;;;14.80;99.90;;;;;;5019669;28;20241;-63
2021/08/11 02:46:21;;;;;;;11.73;9.67;;;14.90;99.90;;;;;;5026021;28;20328;-64
2021/08/11 02:48:54;;;;;;;11.70;9.40;;;14.70;99.90;;;;;;5024799;28;20236;-63
2021/08/11 02:51:27;;;;;;;11.73;10.10;;;14.70;99.90;;;;;;5024532;28;20689;-64
2021/08/11 02:53:56;;;;;;;11.53;9.77;;;14.70;99.90;;;;;;5024397;28;20248;-64
2021/08/11 02:56:25;;;;;;;13.27;10.20;;;14.70;99.90;;;;;;5024385;28;20669;-64
2021/08/11 02:58:55;;;;;;;11.30;10.13;;;14.70;99.90;;;;;;5024118;28;20247;-63
2021/08/11 03:01:25;;;;;;;11.60;9.90;;;14.80;99.90;;;;;;5035145;28;20307;-64
2021/08/11 03:03:53;;;;;;;12.90;10.07;;;14.80;99.90;;;;;;5024466;28;20554;-64
2021/08/11 03:06:23;;;;;;;11.33;10.00;;;14.90;99.90;;;;;;5024527;28;20233;-64
2021/08/11 03:08:53;;;;;;;11.63;10.47;;;14.70;99.90;;;;;;5024610;28;20233;-65
2021/08/11 03:11:21;;;;;;;10.63;9.53;;;14.60;99.90;;;;;;5023576;28;20240;-64
2021/08/11 03:13:51;;;;;;;13.10;9.80;;;14.70;99.90;;;;;;5024150;28;20233;-63
2021/08/11 03:16:19;;;;;;;12.50;9.87;;;14.70;99.90;;;;;;5019304;28;20241;-63
2021/08/11 03:18:50;;;;;;;11.63;9.47;;;14.70;99.90;;;;;;5022286;28;20260;-63
2021/08/11 03:21:18;;;;;;;11.33;9.87;;;14.80;99.90;;;;;;5022434;28;20240;-63
2021/08/11 03:23:48;;;;;;;10.67;9.67;;;14.80;99.90;;;;;;5024654;28;20233;-65
2021/08/11 03:26:18;;;;;;;9.87;8.87;;;14.80;99.90;;;;;;5023403;28;20652;-63
2021/08/11 03:28:46;;;;;;;14.40;10.20;;;14.80;99.90;;;;;;5024105;28;20249;-64
2021/08/11 03:31:15;;;;;;;11.33;10.13;;;14.60;99.90;;;;;;5023645;28;20229;-64
2021/08/11 03:33:45;;;;;;;11.33;10.13;;;14.50;99.90;;;;;;5025240;28;20780;-63
2021/08/11 03:36:13;;;;;;;15.97;10.37;;;14.50;99.90;;;;;;5027626;28;20556;-64
2021/08/11 03:38:42;;;;;;;10.63;9.53;;;14.50;99.90;;;;;;5027684;28;20263;-64
2021/08/11 03:41:12;;;;;;;11.03;9.93;;;14.60;99.90;;;;;;5029021;28;20286;-63
2021/08/11 03:43:40;;;;;;;12.40;9.53;;;14.70;99.90;;;;;;5029133;28;20236;-63
2021/08/11 03:46:08;;;;;;;11.33;9.90;;;14.60;99.90;;;;;;5028066;28;20229;-64
2021/08/11 03:48:37;;;;;;;10.10;9.10;;;14.60;99.90;;;;;;5027719;28;20251;-63
2021/08/11 03:51:05;;;;;;;11.43;10.20;;;14.70;99.90;;;;;;5027517;28;20559;-64
2021/08/11 03:53:33;;;;;;;12.00;10.70;;;14.70;99.90;;;;;;5027303;28;20604;-64
2021/08/11 03:56:02;;;;;;;11.53;10.30;;;14.50;99.90;;;;;;5027845;28;20243;-63
2021/08/11 03:58:32;;;;;;;11.60;9.63;;;14.50;99.90;;;;;;5027821;28;20244;-63
2021/08/11 04:01:01;;;;;;;11.83;10.37;;;14.50;99.90;;;;;;5027790;28;20239;-63
2021/08/11 04:03:30;;;;;;;11.47;9.77;;;14.60;99.90;;;;;;5027303;28;20252;-64
2021/08/11 04:05:58;;;;;;;11.77;10.67;;;14.60;99.90;;;;;;5028849;28;20658;-63
2021/08/11 04:08:26;;;;;;;10.77;9.60;;;14.50;99.90;;;;;;5028753;28;20786;-64
2021/08/11 04:10:54;;;;;;;11.87;10.30;;;14.50;99.90;;;;;;5029242;28;20593;-64
2021/08/11 04:13:22;;;;;;;11.17;9.90;;;14.60;99.90;;;;;;5027823;28;20240;-63
2021/08/11 04:15:52;;;;;;;12.07;10.53;;;14.60;99.90;;;;;;5028992;28;20240;-64
2021/08/11 04:18:20;;;;;;;11.80;10.60;;;14.60;99.90;;;;;;5026949;28;20239;-64
2021/08/11 04:20:48;;;;;;;11.60;10.40;;;14.60;99.90;;;;;;5029329;28;20228;-64
2021/08/11 04:23:16;;;;;;;12.63;10.30;;;14.60;99.90;;;;;;5027406;28;20305;-64
2021/08/11 04:25:44;;;;;;;11.40;10.23;;;14.60;99.90;;;;;;5028923;28;20245;-64
2021/08/11 04:28:12;;;;;;;10.80;9.70;;;14.60;99.90;;;;;;5028444;28;20828;-63
2021/08/11 04:30:41;;;;;;;12.20;10.87;;;14.60;99.90;;;;;;5028724;28;20244;-64
2021/08/11 04:33:10;;;;;;;14.43;11.43;;;14.60;99.90;;;;;;5027459;28;20232;-64
2021/08/11 04:35:39;;;;;;;15.40;11.37;;;14.70;99.90;;;;;;5028743;28;20271;-65
2021/08/11 04:38:08;;;;;;;14.00;10.43;;;14.70;99.90;;;;;;5028320;28;20290;-65
2021/08/11 04:40:36;;;;;;;11.27;10.13;;;14.80;99.90;;;;;;5028437;28;20236;-64
2021/08/11 04:43:04;;;;;;;12.17;10.73;;;14.60;99.90;;;;;;5026866;28;20302;-63
2021/08/11 04:45:32;;;;;;;15.90;11.30;;;14.70;99.90;;;;;;5021655;28;20237;-64
2021/08/11 04:48:00;;;;;;;11.87;10.23;;;14.80;99.90;;;;;;5028028;28;20232;-63
2021/08/11 04:50:30;;;;;;;12.40;10.83;;;14.80;99.90;;;;;;5028440;28;20708;-63
2021/08/11 04:52:58;;;;;;;12.03;10.70;;;14.80;99.90;;;;;;5027772;28;20244;-63
2021/08/11 04:55:26;;;;;;;15.17;11.67;;;14.80;99.90;;;;;;5032363;28;20236;-63
2021/08/11 04:57:54;;;;;;;15.60;11.37;;;14.90;99.90;;;;;;5028325;28;20236;-63
2021/08/11 05:00:22;;;;;;;13.93;11.33;;;14.90;99.90;;;;;;5027772;28;20255;-63
2021/08/11 05:02:51;;;;;;;15.03;11.73;;;14.80;99.90;;;;;;5026670;28;20240;-64
2021/08/11 05:05:19;;;;;;;13.80;11.40;;;14.80;99.90;;;;;;5023337;28;20259;-63
2021/08/11 05:07:49;;;;;;;15.97;11.83;;;14.80;99.90;;;;;;5026522;28;20228;-64
2021/08/11 05:10:18;;;;;;;13.97;11.33;;;15.00;99.90;;;;;;5026916;28;20318;-64
2021/08/11 05:12:46;;;;;;;13.57;11.20;;;14.90;99.90;;;;;;5026468;28;20774;-65
2021/08/11 05:15:15;;;;;;;13.90;11.87;;;14.90;99.90;;;;;;5025906;28;20240;-63
2021/08/11 05:17:43;;;;;;;14.33;12.40;;;14.90;99.90;;;;;;5026293;28;20732;-64
2021/08/11 05:20:13;;;;;;;14.77;13.27;;;15.00;99.90;;;;;;5026420;28;20731;-65
2021/08/11 05:22:41;;;;;;;14.23;12.07;;;14.90;99.90;;;;;;5025461;28;20252;-64
2021/08/11 05:25:11;;;;;;;14.53;11.90;;;15.10;99.90;;;;;;5025550;28;20386;-64
2021/08/11 05:27:40;;;;;;;16.30;13.00;;;15.00;99.90;;;;;;5025797;28;20758;-63
2021/08/11 05:30:09;;;;;;;13.30;11.90;;;15.10;99.90;;;;;;5026197;28;20244;-63
2021/08/11 05:32:38;;;;;;;14.17;11.53;;;15.30;99.90;;;;;;5025697;28;20716;-64
2021/08/11 05:35:07;;;;;;;13.07;11.83;;;15.40;99.90;;;;;;5025079;28;20708;-65
2021/08/11 05:37:35;;;;;;;15.80;13.13;;;15.40;99.90;;;;;;5025609;28;20232;-63
2021/08/11 05:40:04;;;;;;;13.13;11.27;;;15.50;99.90;;;;;;5026275;28;20232;-64
2021/08/11 05:42:33;;;;;;;13.60;11.83;;;15.70;99.90;;;;;;5025210;28;20233;-64
2021/08/11 05:45:01;;;;;;;14.13;11.83;;;15.80;99.90;;;;;;5025897;28;20236;-63
2021/08/11 05:47:31;;;;;;;12.90;11.17;;;16.00;99.90;;;;;;5025647;28;20241;-63
2021/08/11 05:49:59;;;;;;;12.67;10.73;;;16.10;99.90;;;;;;5027183;28;20232;-64
2021/08/11 05:52:27;;;;;;;12.70;11.23;;;16.20;99.90;;;;;;5025698;28;20484;-64
2021/08/11 05:54:55;;;;;;;13.13;11.83;;;16.50;99.90;;;;;;5025825;28;20259;-64
2021/08/11 05:57:23;;;;;;;12.97;11.60;;;16.50;99.90;;;;;;5022141;28;20275;-65
2021/08/11 05:59:53;;;;;;;11.70;9.70;;;16.70;99.90;;;;;;5025560;28;20236;-64
2021/08/11 06:02:22;;;;;;;11.03;9.93;;;16.90;99.90;;;;;;5023951;28;20331;-65
2021/08/11 06:05:08;;;;;;;12.73;10.57;;;17.10;99.90;;;;;;5024405;28;20241;-64
2021/08/11 06:07:38;;;;;;;11.87;10.63;;;17.20;99.90;;;;;;5025657;28;20241;-64
2021/08/11 06:10:07;;;;;;;11.00;9.83;;;17.30;99.90;;;;;;5026197;28;20322;-64
2021/08/11 06:12:35;;;;;;;11.30;10.30;;;17.50;99.90;;;;;;5023177;28;20238;-64
2021/08/11 06:15:06;;;;;;;11.50;10.30;;;17.60;99.90;;;;;;5025460;28;20233;-65
2021/08/11 06:17:43;;;;;;;12.87;10.80;;;17.70;99.90;;;;;;5024835;28;20863;-63
2021/08/11 06:20:12;;;;;;;12.73;11.13;;;17.90;99.90;;;;;;5024405;28;20244;-64
2021/08/11 06:22:41;;;;;;;12.87;10.30;;;18.00;99.90;;;;;;5023560;28;20235;-63
2021/08/11 06:25:10;;;;;;;11.03;9.90;;;18.20;99.90;;;;;;5022689;28;20780;-64
2021/08/11 06:27:38;;;;;;;11.50;9.90;;;18.30;99.90;;;;;;5024238;28;20242;-64
2021/08/11 06:30:11;;;;;;;12.00;9.90;;;18.50;99.90;;;;;;5024188;28;20234;-65
2021/08/11 06:32:39;;;;;;;11.40;10.10;;;18.70;99.90;;;;;;5022716;28;20258;-64
2021/08/11 06:35:08;;;;;;;13.53;9.70;;;18.80;99.90;;;;;;5026715;28;20250;-64
2021/08/11 06:37:46;;;;;;;11.83;10.03;;;18.90;99.90;;;;;;5029482;28;20238;-65
2021/08/11 06:40:15;;;;;;;11.53;10.40;;;19.00;99.90;;;;;;5026612;28;20261;-64
2021/08/11 06:42:44;;;;;;;11.50;10.30;;;19.10;99.90;;;;;;5025227;28;20572;-65
2021/08/11 06:45:16;;;;;;;12.10;10.70;;;19.20;99.90;;;;;;5024724;28;20238;-64
2021/08/11 06:47:44;;;;;;;10.83;9.73;;;19.40;99.90;;;;;;5023894;28;20243;-65
2021/08/11 06:50:14;;;;;;;13.83;11.03;;;19.60;99.90;;;;;;5024697;28;20675;-64
2021/08/11 06:52:43;;;;;;;12.97;10.47;;;19.60;99.90;;;;;;5025325;28;20262;-65
2021/08/11 06:55:13;;;;;;;10.83;9.70;;;19.80;99.90;;;;;;5026020;28;20592;-64
2021/08/11 06:57:42;;;;;;;10.10;8.90;;;20.00;99.90;;;;;;5022349;28;20743;-65
2021/08/11 07:00:11;;;;;;;11.17;9.77;;;20.20;99.90;;;;;;5024670;28;20243;-65
2021/08/11 07:02:41;;;;;;;12.33;10.40;;;20.30;99.90;;;;;;5020564;28;20238;-65
2021/08/11 07:05:10;;;;;;;13.80;10.50;;;20.50;99.90;;;;;;5025674;28;20781;-65
2021/08/11 07:07:39;;;;;;;11.03;9.63;;;20.40;99.90;;;;;;5020286;28;20243;-65
2021/08/11 07:10:09;;;;;;;11.67;8.73;;;20.60;99.90;;;;;;5024576;28;20231;-65
2021/08/11 07:12:38;;;;;;;9.17;8.10;;;20.80;99.90;;;;;;5019535;28;20240;-65
2021/08/11 07:15:07;;;;;;;12.07;8.47;;;21.00;99.90;;;;;;5019862;28;20239;-65
2021/08/11 07:17:35;;;;;;;10.83;8.00;;;21.10;99.90;;;;;;5024348;28;20688;-66
2021/08/11 07:20:10;;;;;;;9.87;7.90;;;21.20;99.90;;;;;;5024524;28;20294;-65
2021/08/11 07:22:40;;;;;;;9.20;6.93;;;21.40;99.90;;;;;;5022716;28;20236;-66
2021/08/11 07:25:09;;;;;;;9.67;6.97;;;21.60;99.90;;;;;;5025399;28;20239;-65
2021/08/11 07:27:37;;;;;;;10.03;6.90;;;21.70;99.90;;;;;;5024858;28;20236;-65
2021/08/11 07:30:07;;;;;;;10.50;6.83;;;21.80;99.90;;;;;;5024797;28;20240;-66
2021/08/11 07:32:35;;;;;;;10.50;6.50;;;21.90;99.90;;;;;;5023204;28;20505;-66
2021/08/11 07:35:04;;;;;;;11.47;7.23;;;22.00;99.90;;;;;;5025121;28;20250;-66
2021/08/11 07:37:34;;;;;;;7.97;5.97;;;22.10;99.90;;;;;;5019306;28;20453;-65
2021/08/11 07:40:02;;;;;;;9.07;5.87;;;22.50;99.90;;;;;;5024312;28;20235;-66
2021/08/11 07:42:30;;;;;;;9.60;6.20;;;22.60;99.90;;;;;;5024286;28;20246;-65
2021/08/11 07:44:58;;;;;;;11.23;5.77;;;22.70;99.90;;;;;;5023909;28;20240;-66
2021/08/11 07:47:26;;;;;;;9.80;6.13;;;22.90;99.90;;;;;;5021506;28;20232;-66
2021/08/11 07:49:54;;;;;;;8.63;5.40;;;23.00;99.90;;;;;;5025328;28;20289;-66
2021/08/11 07:52:22;;;;;;;7.80;5.37;;;23.00;99.90;;;;;;5023651;28;20243;-67
2021/08/11 07:54:52;;;;;;;6.43;5.03;;;22.80;99.90;;;;;;5025114;28;20671;-66
2021/08/11 07:57:20;;;;;;;5.83;4.77;;;22.80;99.90;;;;;;5017516;28;20243;-65
2021/08/11 07:59:52;;;;;;;10.70;4.80;;;22.80;99.90;;;;;;5021894;28;20973;-66
2021/08/11 08:02:21;;;;;;;7.10;4.00;;;23.10;99.90;;;;;;5024572;28;20241;-66
2021/08/11 08:04:49;;;;;;;6.37;4.40;;;23.40;99.90;;;;;;5024112;28;20294;-67
2021/08/11 08:07:17;;;;;;;7.23;4.80;;;23.80;99.90;;;;;;5016498;28;20557;-65
2021/08/11 08:09:45;;;;;;;5.67;4.60;;;24.10;99.90;;;;;;5023953;28;20738;-66
2021/08/11 08:12:15;;;;;;;8.00;5.17;;;24.40;99.90;;;;;;5027138;28;20233;-66
2021/08/11 08:14:43;;;;;;;7.23;4.77;;;24.40;99.90;;;;;;5025006;28;20727;-66
2021/08/11 08:17:11;;;;;;;6.20;4.83;;;24.20;99.90;;;;;;5025568;28;20269;-66
2021/08/11 08:19:40;;;;;;;8.40;4.60;;;24.50;99.90;;;;;;5019964;28;20241;-66
2021/08/11 08:22:08;;;;;;;7.17;4.50;;;24.60;99.90;;;;;;5025229;28;20237;-66
2021/08/11 08:24:36;;;;;;;8.07;4.30;;;24.80;99.90;;;;;;5010673;28;20785;-67
2021/08/11 08:27:04;;;;;;;6.17;4.43;;;24.80;99.90;;;;;;5012493;28;20324;-67
2021/08/11 08:29:34;;;;;;;5.73;4.37;;;24.60;99.90;;;;;;5014256;28;20771;-66
2021/08/11 08:32:02;;;;;;;6.70;4.73;;;24.40;99.90;;;;;;5013860;28;20316;-67
2021/08/11 08:34:30;;;;;;;6.13;4.37;;;24.30;99.90;;;;;;5010923;28;20246;-67
2021/08/11 08:36:58;;;;;;;6.60;3.97;;;24.60;99.90;;;;;;5012993;28;20608;-67
2021/08/11 08:39:26;;;;;;;6.10;4.20;;;25.40;99.90;;;;;;5012505;28;20362;-67
2021/08/11 08:41:56;;;;;;;4.93;4.03;;;25.10;99.90;;;;;;5013718;28;20289;-67
2021/08/11 08:44:24;;;;;;;4.70;3.40;;;24.40;99.90;;;;;;5010841;28;20250;-67
2021/08/11 08:46:56;;;;;;;6.67;3.70;;;23.90;99.90;;;;;;5014307;28;20636;-67
2021/08/11 08:49:26;;;;;;;6.33;3.93;;;23.50;99.90;;;;;;5014325;28;20246;-67
2021/08/11 08:51:55;;;;;;;6.43;3.70;;;23.40;99.90;;;;;;5013579;28;20269;-67
2021/08/11 08:54:26;;;;;;;6.17;4.00;;;23.60;99.90;;;;;;5011043;28;20985;-68
2021/08/11 08:56:54;;;;;;;4.60;3.70;;;24.10;99.90;;;;;;5014564;28;20754;-67
2021/08/11 08:59:22;;;;;;;6.23;3.67;;;24.10;99.90;;;;;;5014280;28;20237;-67
2021/08/11 09:01:51;;;;;;;6.10;3.80;;;23.90;99.90;;;;;;5013808;28;20731;-68
2021/08/11 09:04:21;;;;;;;4.53;3.80;;;23.90;99.90;;;;;;5003886;28;20790;-69
2021/08/11 09:06:49;;;;;;;5.30;3.93;;;24.60;99.90;;;;;;5016933;28;20365;-68
2021/08/11 09:09:19;;;;;;;6.80;3.70;;;24.80;99.90;;;;;;5018012;28;20257;-68
2021/08/11 09:11:47;;;;;;;7.43;4.17;;;24.80;99.90;;;;;;4998987;28;20251;-68
2021/08/11 09:14:22;;;;;;;4.80;4.13;;;24.40;99.90;;;;;;4992922;28;20563;-70
2021/08/11 09:16:51;;;;;;;4.77;3.63;;;23.70;99.90;;;;;;5004179;28;20937;-68
2021/08/11 09:19:21;;;;;;;5.33;3.70;;;23.40;99.90;;;;;;5012353;28;20250;-68
2021/08/11 09:22:03;;;;;;;4.70;3.70;;;23.70;99.90;;;;;;5012892;28;20349;-68
2021/08/11 09:24:35;;;;;;;6.30;3.97;;;24.10;99.90;;;;;;5009203;28;20238;-68
2021/08/11 09:27:23;;;;;;;6.33;3.80;;;24.50;99.90;;;;;;5012554;28;20248;-69
2021/08/11 09:30:10;;;;;;;6.80;3.93;;;25.00;99.90;;;;;;5014008;28;20273;-69
2021/08/11 09:33:03;;;;;;;5.57;3.90;;;25.40;99.90;;;;;;5012194;28;20258;-69
2021/08/11 09:35:34;;;;;;;6.97;4.23;;;25.70;99.90;;;;;;4996105;28;20773;-69
2021/08/11 09:38:05;;;;;;;6.33;3.50;;;25.20;99.90;;;;;;5012969;28;20238;-68
2021/08/11 09:40:35;;;;;;;5.97;3.70;;;25.10;99.90;;;;;;5013519;28;20261;-68
2021/08/11 09:43:05;;;;;;;4.83;3.43;;;25.30;99.90;;;;;;5012616;28;20270;-69
2021/08/11 09:45:44;;;;;;;4.67;3.50;;;25.90;99.90;;;;;;5008172;28;20251;-68
2021/08/11 09:48:13;;;;;;;6.33;3.63;;;26.10;99.90;;;;;;5013206;28;20251;-68
2021/08/11 09:50:46;;;;;;;4.17;3.47;;;26.20;99.90;;;;;;5012836;28;20235;-70
2021/08/11 09:53:23;;;;;;;6.30;3.37;;;26.40;99.90;;;;;;5011860;28;20758;-68
2021/08/11 09:56:02;;;;;;;5.07;3.40;;;26.60;99.90;;;;;;5010065;28;20349;-69
2021/08/11 09:58:34;;;;;;;6.27;3.33;;;26.80;99.90;;;;;;5012673;28;20262;-68
2021/08/11 10:01:03;;;;;;;4.87;3.20;;;26.90;99.90;;;;;;5013108;28;20321;-68
2021/08/11 10:03:33;;;;;;;6.03;3.40;;;27.10;99.90;;;;;;5012132;28;20714;-68
2021/08/11 10:06:03;;;;;;;3.90;2.90;;;27.30;99.90;;;;;;5009823;28;20783;-68
2021/08/11 10:08:35;;;;;;;4.43;2.90;;;27.40;99.90;;;;;;5012978;28;20244;-68
2021/08/11 10:11:04;;;;;;;6.37;3.30;;;27.80;99.90;;;;;;5013290;28;20314;-69
2021/08/11 10:13:36;;;;;;;5.27;3.17;;;28.00;99.90;;;;;;5012000;28;20251;-70
2021/08/11 10:16:05;;;;;;;4.47;3.10;;;28.10;99.90;;;;;;5009490;28;20331;-68
2021/08/11 10:18:40;;;;;;;5.37;3.00;;;28.00;99.90;;;;;;5012423;28;20887;-69
2021/08/11 10:21:11;;;;;;;5.83;2.97;;;27.90;99.90;;;;;;5012672;28;20312;-69
2021/08/11 10:23:40;;;;;;;3.37;2.97;;;27.90;99.90;;;;;;5011681;28;20322;-69
2021/08/11 10:26:08;;;;;;;5.63;2.90;;;27.70;99.90;;;;;;5008183;28;20266;-70
2021/08/11 10:28:37;;;;;;;4.63;3.37;;;27.00;99.90;;;;;;5009724;28;20264;-70
2021/08/11 10:31:05;;;;;;;4.60;2.97;;;27.00;99.90;;;;;;5012572;28;20240;-69
2021/08/11 10:33:33;;;;;;;4.97;3.27;;;27.40;99.90;;;;;;5010941;28;20605;-68
2021/08/11 10:36:02;;;;;;;4.50;3.13;;;27.30;99.90;;;;;;5009352;28;20296;-69
2021/08/11 10:38:35;;;;;;;5.50;3.10;;;27.30;99.90;;;;;;5012474;28;20309;-70
2021/08/11 10:41:03;;;;;;;5.03;3.27;;;27.50;99.90;;;;;;5012617;28;20323;-70
2021/08/11 10:43:34;;;;;;;2.90;2.60;;;27.60;99.90;;;;;;5010482;28;20317;-69
2021/08/11 10:46:07;;;;;;;5.50;3.30;;;27.70;99.90;;;;;;5008499;28;20241;-70
2021/08/11 10:48:36;;;;;;;5.00;3.00;;;27.80;99.90;;;;;;5012102;28;20579;-69
2021/08/11 10:51:04;;;;;;;5.03;3.20;;;27.60;99.90;;;;;;5012593;28;20300;-67
2021/08/11 10:53:34;;;;;;;4.43;3.13;;;27.70;99.90;;;;;;5011148;28;20235;-67
2021/08/11 10:56:02;;;;;;;5.63;3.00;;;28.10;99.90;;;;;;5008484;28;20245;-69
2021/08/11 10:58:46;;;;;;;3.57;2.50;;;28.60;99.90;;;;;;5011248;28;20247;-69
2021/08/11 11:01:31;;;;;;;4.93;3.00;;;29.10;99.90;;;;;;5012303;28;20336;-69
2021/08/11 11:04:01;;;;;;;4.27;3.03;;;28.90;99.90;;;;;;5009547;28;20761;-67
2021/08/11 11:06:52;;;;;;;3.37;2.87;;;28.70;99.90;;;;;;5008472;28;20810;-69
2021/08/11 11:09:23;;;;;;;3.13;2.70;;;28.80;99.90;;;;;;5008840;28;21159;-67
2021/08/11 11:11:51;;;;;;;3.30;2.87;;;28.30;99.90;;;;;;5011772;28;20285;-67
2021/08/11 11:14:56;;;;;;;3.80;3.00;;;27.80;99.90;;;;;;5007897;28;20627;-69
2021/08/11 11:17:26;;;;;;;3.50;2.70;;;27.00;99.90;;;;;;5009239;28;20240;-68
2021/08/11 11:20:28;;;;;;;4.33;2.97;;;27.10;99.90;;;;;;5009761;28;20244;-68
2021/08/11 11:23:01;;;;;;;3.40;2.57;;;27.60;99.90;;;;;;5008958;28;20800;-70
2021/08/11 11:26:07;;;;;;;4.63;3.17;;;27.60;99.90;;;;;;5006006;28;21002;-70
2021/08/11 11:28:57;;;;;;;3.17;2.60;;;27.80;99.90;;;;;;4996114;28;20667;-69
2021/08/11 11:31:33;;;;;;;4.43;2.90;;;27.90;99.90;;;;;;5010377;28;20261;-70
2021/08/11 11:34:27;;;;;;;3.77;2.73;;;28.00;99.90;;;;;;5009933;28;20584;-70
2021/08/11 11:37:22;;;;;;;4.43;2.80;;;28.70;99.90;;;;;;5011264;28;20237;-70
2021/08/11 11:40:15;;;;;;;3.13;2.83;;;29.30;99.90;;;;;;5003645;28;20318;-69
2021/08/11 11:42:46;;;;;;;2.87;2.40;;;29.60;99.90;;;;;;5010477;28;20241;-67
2021/08/11 11:45:37;;;;;;;5.13;3.20;;;29.00;99.90;;;;;;5007431;28;20264;-67
2021/08/11 11:48:06;;;;;;;4.77;2.63;;;28.60;99.90;;;;;;4997856;28;20702;-67
2021/08/11 11:50:41;;;;;;;3.73;2.70;;;28.80;99.90;;;;;;5010707;28;20247;-68
2021/08/11 11:53:19;;;;;;;4.53;2.80;;;29.00;99.90;;;;;;5008862;28;20583;-67
2021/08/11 11:55:48;;;;;;;4.27;2.57;;;28.90;99.90;;;;;;5008694;28;20611;-68
2021/08/11 11:58:17;;;;;;;3.20;2.50;;;29.10;99.90;;;;;;5013955;28;20642;-67
2021/08/11 12:00:48;;;;;;;3.07;2.50;;;29.40;99.90;;;;;;5014343;28;20240;-67
2021/08/11 12:03:17;;;;;;;5.10;2.90;;;29.30;99.90;;;;;;5012323;28;20274;-67
2021/08/11 12:05:47;;;;;;;3.10;2.60;;;29.20;99.90;;;;;;5009714;28;21104;-68
2021/08/11 12:08:17;;;;;;;3.33;2.63;;;29.00;99.90;;;;;;5013636;28;20241;-68
2021/08/11 12:10:47;;;;;;;3.70;3.13;;;28.60;99.90;;;;;;5013951;28;20327;-69
2021/08/11 12:13:18;;;;;;;3.83;2.57;;;28.30;99.90;;;;;;5013874;28;20298;-68
2021/08/11 12:15:53;;;;;;;3.30;2.80;;;28.10;99.90;;;;;;5010898;28;20247;-67
2021/08/11 12:18:22;;;;;;;3.73;2.57;;;27.90;99.90;;;;;;5013846;28;20255;-67
2021/08/11 12:20:53;;;;;;;2.70;2.50;;;28.00;99.90;;;;;;5013320;28;20235;-67
2021/08/11 12:23:23;;;;;;;3.60;2.53;;;28.00;99.90;;;;;;5014939;28;20343;-67
2021/08/11 12:25:53;;;;;;;2.97;2.50;;;28.10;99.90;;;;;;5010194;28;20251;-68
2021/08/11 12:28:22;;;;;;;2.67;2.23;;;28.10;99.90;;;;;;5014661;28;20244;-69
2021/08/11 12:30:57;;;;;;;3.53;2.67;;;27.90;99.90;;;;;;5012087;28;20248;-67
2021/08/11 12:33:27;;;;;;;3.73;2.60;;;27.50;99.90;;;;;;5012841;28;20346;-68
2021/08/11 12:35:57;;;;;;;3.20;2.77;;;27.40;99.90;;;;;;5010961;28;20251;-67
2021/08/11 12:38:28;;;;;;;5.70;3.10;;;27.20;99.90;;;;;;5013829;28;20362;-68
2021/08/11 12:40:59;;;;;;;4.13;3.00;;;27.20;99.90;;;;;;5014510;28;20239;-67
2021/08/11 12:43:38;;;;;;;4.93;3.00;;;27.30;99.90;;;;;;5012279;28;20244;-68
2021/08/11 12:46:10;;;;;;;3.53;3.00;;;27.10;99.90;;;;;;5009907;28;20325;-68
2021/08/11 12:48:39;;;;;;;3.43;2.67;;;26.90;99.90;;;;;;5014831;28;20231;-67
2021/08/11 12:51:20;;;;;;;4.33;3.40;;;26.70;99.90;;;;;;5035041;28;20621;-67
2021/08/11 12:54:03;;;;;;;5.00;2.90;;;26.60;99.90;;;;;;5026129;28;20776;-67
2021/08/11 12:56:31;;;;;;;3.50;2.67;;;26.10;99.90;;;;;;5021526;28;20306;-68
2021/08/11 12:59:02;;;;;;;3.20;2.70;;;25.80;99.90;;;;;;5028342;28;20243;-66
2021/08/11 13:01:39;;;;;;;4.33;2.90;;;25.70;99.90;;;;;;5027834;28;20686;-68